Time;durP1;ratioP1;P1;durP2;ratioP2;P2;SDS_P1;SDS_P2;PMS_P1;PMS_P2;Temp;Humidity;BMP_temperature;BMP_pressure;BME280_temperature;BME280_humidity;BME280_pressure;Samples;Min_cycle;Max_cycle;Signal;HPM_P1;HPM_P2
2023/08/09 00:01:51;;;;;;;8.07;2.55;;;;;;;;;;5125366;28;20043;-51
2023/08/09 00:04:19;;;;;;;6.50;2.72;;;;;;;;;;5125257;28;20327;-57
2023/08/09 00:06:46;;;;;;;3.47;2.47;;;;;;;;;;5125099;28;20058;-52
2023/08/09 00:09:12;;;;;;;8.18;2.45;;;;;;;;;;5125500;28;20327;-54
2023/08/09 00:11:39;;;;;;;6.57;2.70;;;;;;;;;;5125338;28;20051;-53
2023/08/09 00:14:06;;;;;;;5.38;2.35;;;;;;;;;;5124937;28;20028;-55
2023/08/09 00:16:32;;;;;;;6.63;3.60;;;;;;;;;;5125403;28;20366;-52
2023/08/09 00:18:59;;;;;;;8.45;3.30;;;;;;;;;;5124809;28;20027;-55
2023/08/09 00:21:26;;;;;;;5.03;2.72;;;;;;;;;;5124942;28;20327;-53
2023/08/09 00:23:53;;;;;;;6.70;2.33;;;;;;;;;;5125477;28;20035;-60
2023/08/09 00:26:20;;;;;;;3.35;2.42;;;;;;;;;;5125055;28;20035;-54
2023/08/09 00:28:47;;;;;;;4.80;2.08;;;;;;;;;;5124596;28;20019;-54
2023/08/09 00:31:13;;;;;;;8.45;2.00;;;;;;;;;;5124924;28;20024;-54
2023/08/09 00:33:40;;;;;;;3.08;1.98;;;;;;;;;;5124749;28;20355;-58
2023/08/09 00:36:07;;;;;;;8.70;3.40;;;;;;;;;;5124610;28;20028;-53
2023/08/09 00:38:33;;;;;;;7.45;3.22;;;;;;;;;;5124751;28;20028;-53
2023/08/09 00:41:00;;;;;;;5.97;3.53;;;;;;;;;;5125453;28;20324;-53
2023/08/09 00:43:32;;;;;;;7.05;3.47;;;;;;;;;;5124749;28;20028;-55
2023/08/09 00:45:59;;;;;;;5.10;3.40;;;;;;;;;;5125281;28;20055;-55
2023/08/09 00:48:26;;;;;;;6.00;3.70;;;;;;;;;;5124589;28;20042;-52
2023/08/09 00:50:53;;;;;;;5.53;3.30;;;;;;;;;;5124928;28;20020;-55
2023/08/09 00:53:21;;;;;;;9.70;3.10;;;;;;;;;;5124548;28;20035;-53
2023/08/09 00:55:48;;;;;;;5.70;2.97;;;;;;;;;;5125044;28;20028;-54
2023/08/09 00:58:14;;;;;;;4.70;2.88;;;;;;;;;;5124397;28;20343;-57
2023/08/09 01:00:41;;;;;;;8.02;2.80;;;;;;;;;;5125005;28;20028;-53
2023/08/09 01:03:08;;;;;;;4.78;2.47;;;;;;;;;;5124448;28;20438;-54
2023/08/09 01:05:40;;;;;;;9.43;8.55;;;;;;;;;;5124210;28;20016;-52
2023/08/09 01:08:13;;;;;;;9.30;5.85;;;;;;;;;;5124550;28;20325;-55
2023/08/09 01:10:44;;;;;;;6.88;2.80;;;;;;;;;;5109132;28;20091;-52
2023/08/09 01:13:10;;;;;;;4.22;3.35;;;;;;;;;;5113404;28;20039;-54
2023/08/09 01:15:39;;;;;;;6.97;3.40;;;;;;;;;;5104435;28;20073;-51
2023/08/09 01:18:08;;;;;;;5.30;2.65;;;;;;;;;;5103836;28;20020;-54
2023/08/09 01:20:39;;;;;;;4.45;2.50;;;;;;;;;;5097949;28;20040;-57
2023/08/09 01:23:17;;;;;;;5.05;2.55;;;;;;;;;;5085908;28;20032;-51
2023/08/09 01:25:44;;;;;;;4.78;2.38;;;;;;;;;;5095168;28;20090;-52
2023/08/09 01:28:11;;;;;;;16.77;13.27;;;;;;;;;;5103922;28;20036;-48
2023/08/09 01:30:37;;;;;;;9.73;7.35;;;;;;;;;;5105897;28;20088;-50
2023/08/09 01:33:04;;;;;;;6.88;4.82;;;;;;;;;;5098710;28;20032;-60
2023/08/09 01:35:37;;;;;;;7.18;3.40;;;;;;;;;;5091163;28;20024;-50
2023/08/09 01:38:10;;;;;;;6.78;3.03;;;;;;;;;;5087873;28;20078;-52
2023/08/09 01:40:39;;;;;;;6.53;3.75;;;;;;;;;;5087450;28;20052;-52
2023/08/09 01:43:05;;;;;;;7.07;4.28;;;;;;;;;;5082140;28;20348;-54
2023/08/09 01:45:37;;;;;;;8.75;3.30;;;;;;;;;;5087210;28;20098;-56
2023/08/09 01:48:11;;;;;;;7.22;3.05;;;;;;;;;;5087660;28;20028;-53
2023/08/09 01:50:40;;;;;;;5.15;3.22;;;;;;;;;;5087554;28;20062;-53
2023/08/09 01:53:07;;;;;;;7.13;2.70;;;;;;;;;;5104572;28;20028;-54
2023/08/09 01:55:38;;;;;;;7.35;2.72;;;;;;;;;;5113131;28;20069;-59
2023/08/09 01:58:08;;;;;;;7.35;2.80;;;;;;;;;;5112277;28;20091;-54
2023/08/09 02:00:37;;;;;;;8.80;2.83;;;;;;;;;;5089365;28;20036;-53
2023/08/09 02:03:09;;;;;;;9.23;3.03;;;;;;;;;;5107268;28;20272;-59
2023/08/09 02:05:38;;;;;;;10.35;3.63;;;;;;;;;;5084687;28;20028;-51
2023/08/09 02:08:06;;;;;;;11.13;2.95;;;;;;;;;;5105740;28;20024;-48
2023/08/09 02:11:00;;;;;;;9.68;2.70;;;;;;;;;;5107848;28;20042;-54
2023/08/09 02:13:31;;;;;;;9.73;3.15;;;;;;;;;;5097408;28;20036;-46
2023/08/09 02:15:58;;;;;;;7.20;2.70;;;;;;;;;;5087226;28;20095;-50
2023/08/09 02:18:25;;;;;;;5.00;2.42;;;;;;;;;;5098069;28;20059;-52
2023/08/09 02:20:52;;;;;;;5.47;2.85;;;;;;;;;;5089616;28;20104;-58
2023/08/09 02:23:20;;;;;;;6.85;2.50;;;29.80;99.90;;;;;;5086325;28;20045;-55
2023/08/09 02:28:40;;;;;;;5.72;3.20;;;29.40;99.90;;;;;;5094989;28;20401;-45
2023/08/09 02:31:10;;;;;;;8.02;2.95;;;29.50;99.90;;;;;;5086118;28;20036;-50
2023/08/09 02:33:37;;;;;;;8.07;3.42;;;29.40;99.90;;;;;;5086003;28;20305;-51
2023/08/09 02:36:05;;;;;;;6.85;3.72;;;29.30;99.90;;;;;;5085926;28;20062;-50
2023/08/09 02:38:36;;;;;;;6.85;2.90;;;29.30;99.90;;;;;;5086242;28;20131;-47
2023/08/09 02:41:06;;;;;;;10.82;2.80;;;29.30;99.90;;;;;;5095424;28;20030;-47
2023/08/09 02:43:39;;;;;;;9.77;2.72;;;29.20;99.90;;;;;;5085412;28;20024;-47
2023/08/09 02:46:06;;;;;;;9.00;2.38;;;29.30;99.90;;;;;;5085945;28;20055;-53
2023/08/09 02:48:32;;;;;;;8.65;2.55;;;29.30;99.90;;;;;;5086174;28;20221;-51
2023/08/09 02:51:03;;;;;;;5.20;2.65;;;29.30;99.90;;;;;;5085653;28;20016;-51
2023/08/09 02:54:08;;;;;;;4.72;2.40;;;29.30;99.90;;;;;;5092030;28;20037;-50
2023/08/09 02:56:39;;;;;;;6.90;2.47;;;29.30;99.90;;;;;;5082739;28;20032;-46
2023/08/09 02:59:09;;;;;;;4.57;2.13;;;29.30;99.90;;;;;;5105797;28;20032;-58
2023/08/09 03:01:44;;;;;;;5.88;2.40;;;29.30;99.90;;;;;;5102704;28;20034;-49
2023/08/09 03:04:11;;;;;;;4.93;2.13;;;29.20;99.90;;;;;;5105101;28;20040;-48
2023/08/09 03:06:38;;;;;;;6.43;2.15;;;29.20;99.90;;;;;;5105512;28;20060;-52
2023/08/09 03:09:06;;;;;;;5.35;1.80;;;29.30;99.90;;;;;;5105647;28;20036;-48
2023/08/09 03:11:33;;;;;;;2.30;1.77;;;29.30;99.90;;;;;;5092724;28;20060;-47
2023/08/09 03:14:00;;;;;;;3.85;1.90;;;29.30;99.90;;;;;;5105498;28;20023;-46
2023/08/09 03:16:26;;;;;;;6.80;2.08;;;29.30;99.90;;;;;;5105566;28;20028;-55
2023/08/09 03:18:53;;;;;;;2.17;1.67;;;29.30;99.90;;;;;;5105560;28;20028;-52
2023/08/09 03:21:19;;;;;;;4.45;2.00;;;29.30;99.90;;;;;;5105626;28;20012;-52
2023/08/09 03:23:46;;;;;;;6.45;1.90;;;29.20;99.90;;;;;;5105327;28;20032;-52
2023/08/09 03:26:13;;;;;;;4.35;1.75;;;29.20;99.90;;;;;;5105516;28;20035;-52
2023/08/09 03:28:42;;;;;;;2.60;1.50;;;29.20;99.90;;;;;;5118314;28;20020;-49
2023/08/09 03:31:11;;;;;;;3.88;1.73;;;29.20;99.90;;;;;;5124550;28;20028;-54
2023/08/09 03:33:37;;;;;;;3.78;1.70;;;29.10;99.90;;;;;;5125731;28;20027;-48
2023/08/09 03:36:05;;;;;;;4.85;1.55;;;29.10;99.90;;;;;;5122315;28;20059;-47
2023/08/09 03:38:32;;;;;;;4.22;1.60;;;29.10;99.90;;;;;;5125691;28;20031;-48
2023/08/09 03:40:58;;;;;;;4.50;1.77;;;29.20;99.90;;;;;;5125655;28;20027;-51
2023/08/09 03:43:25;;;;;;;4.10;1.50;;;29.10;99.90;;;;;;5119927;28;20320;-47
2023/08/09 03:45:53;;;;;;;3.28;1.73;;;29.10;99.90;;;;;;5094664;28;20059;-47
2023/08/09 03:48:19;;;;;;;3.30;1.63;;;29.10;99.90;;;;;;5105306;28;20209;-55
2023/08/09 03:50:46;;;;;;;3.10;1.90;;;29.00;99.90;;;;;;5105105;28;20289;-51
2023/08/09 03:53:12;;;;;;;3.72;1.35;;;29.00;99.90;;;;;;5104784;28;20095;-49
2023/08/09 03:55:46;;;;;;;3.20;1.50;;;29.00;99.90;;;;;;5104799;28;20024;-51
2023/08/09 03:58:24;;;;;;;2.70;1.60;;;;;;;;;;5104947;28;20020;-54
2023/08/09 04:00:55;;;;;;;3.42;1.60;;;;;;;;;;5104812;28;20036;-49
2023/08/09 04:03:26;;;;;;;1.33;1.10;;;;;;;;;;5104927;28;20312;-54
2023/08/09 04:05:53;;;;;;;1.73;1.20;;;;;;;;;;5108633;28;20023;-50
2023/08/09 04:08:21;;;;;;;3.58;1.27;;;;;;;;;;5125143;28;20023;-53
2023/08/09 04:10:49;;;;;;;3.00;1.25;;;;;;;;;;5125534;28;20038;-49
2023/08/09 04:13:15;;;;;;;2.38;1.33;;;;;;;;;;5125198;28;20027;-48
2023/08/09 04:15:42;;;;;;;3.88;1.30;;;;;;;;;;5125463;28;20349;-46
2023/08/09 04:18:09;;;;;;;2.03;1.30;;;;;;;;;;5124868;28;20032;-49
2023/08/09 04:20:35;;;;;;;3.75;1.33;;;;;;;;;;5125340;28;20312;-52
2023/08/09 04:23:03;;;;;;;2.05;1.30;;;;;;;;;;5124913;28;20064;-48
2023/08/09 04:25:30;;;;;;;2.53;1.30;;;;;;;;;;5125154;28;20098;-49
2023/08/09 04:27:56;;;;;;;1.65;1.30;;;;;;;;;;5124743;28;20047;-51
2023/08/09 04:30:23;;;;;;;2.58;1.60;;;;;;;;;;5125190;28;20019;-50
2023/08/09 04:32:50;;;;;;;2.08;1.63;;;;;;;;;;5118871;28;20329;-51
2023/08/09 04:35:16;;;;;;;1.88;1.42;;;;;;;;;;5115924;28;20114;-50
2023/08/09 04:37:43;;;;;;;5.28;1.75;;;;;;;;;;5114705;28;20035;-47
2023/08/09 04:40:10;;;;;;;2.20;1.60;;;;;;;;;;5105472;28;20031;-50
2023/08/09 04:42:47;;;;;;;1.90;1.40;;;;;;;;;;5097028;28;20039;-54
2023/08/09 04:45:14;;;;;;;4.20;1.90;;;;;;;;;;5100007;28;20043;-54
2023/08/09 04:47:41;;;;;;;3.20;1.77;;;;;;;;;;5103949;28;20043;-51
2023/08/09 04:50:08;;;;;;;3.15;1.70;;;;;;;;;;5104325;28;20019;-46
2023/08/09 04:52:36;;;;;;;2.40;1.52;;;;;;;;;;5104189;28;20024;-47
2023/08/09 04:55:03;;;;;;;2.83;1.65;;;;;;;;;;5104187;28;20087;-49
2023/08/09 04:57:33;;;;;;;3.28;1.65;;;;;;;;;;5100233;28;20038;-49
2023/08/09 05:00:00;;;;;;;2.45;1.50;;;;;;;;;;5095291;28;20028;-52
2023/08/09 05:02:27;;;;;;;2.15;1.30;;;;;;;;;;5083610;28;20103;-54
2023/08/09 05:04:53;;;;;;;2.65;1.40;;;;;;;;;;5084387;28;20156;-45
2023/08/09 05:07:20;;;;;;;2.85;1.58;;;;;;;;;;5087926;28;20047;-49
2023/08/09 05:09:46;;;;;;;4.22;1.50;;;;;;;;;;5087892;28;20025;-48
2023/08/09 05:12:13;;;;;;;3.05;1.55;;;;;;;;;;5087914;28;20025;-45
2023/08/09 05:14:40;;;;;;;1.98;1.42;;;;;;;;;;5087928;28;20090;-45
2023/08/09 05:17:06;;;;;;;6.18;1.55;;;;;;;;;;5087523;28;20344;-50
2023/08/09 05:19:33;;;;;;;2.53;1.58;;;;;;;;;;5087834;28;20035;-46
2023/08/09 05:22:02;;;;;;;2.55;1.52;;;;;;;;;;5087658;28;20020;-49
2023/08/09 05:24:28;;;;;;;2.65;1.42;;;;;;;;;;5092089;28;20077;-47
2023/08/09 05:26:55;;;;;;;4.25;1.48;;;;;;;;;;5094991;28;20213;-47
2023/08/09 05:29:22;;;;;;;4.43;1.50;;;;;;;;;;5108045;28;20073;-50
2023/08/09 05:31:48;;;;;;;2.45;1.35;;;;;;;;;;5107591;28;20216;-47
2023/08/09 05:34:15;;;;;;;4.50;1.50;;;;;;;;;;5097312;28;20024;-50
2023/08/09 05:36:42;;;;;;;17.27;1.75;;;;;;;;;;5091546;28;20252;-56
2023/08/09 05:39:08;;;;;;;3.47;1.42;;;;;;;;;;5087147;28;20051;-48
2023/08/09 05:41:35;;;;;;;2.47;1.38;;;;;;;;;;5094471;28;20047;-48
2023/08/09 05:44:02;;;;;;;4.50;1.50;;;;;;;;;;5094581;28;20131;-49
2023/08/09 05:46:29;;;;;;;4.50;1.45;;;;;;;;;;5095992;28;20059;-51
2023/08/09 05:48:56;;;;;;;3.25;1.40;;;;;;;;;;5087168;28;20328;-52
2023/08/09 05:51:22;;;;;;;2.03;1.48;;;;;;;;;;5091410;28;20028;-50
2023/08/09 05:53:49;;;;;;;3.20;1.52;;;;;;;;;;5096853;28;20024;-53
2023/08/09 05:56:16;;;;;;;3.33;1.80;;;;;;;;;;5095758;28;20037;-51
2023/08/09 05:58:42;;;;;;;3.67;1.55;;;;;;;;;;5086917;28;20024;-51
2023/08/09 06:01:10;;;;;;;2.80;1.52;;;;;;;;;;5096473;28;20102;-49
2023/08/09 06:03:40;;;;;;;3.28;1.63;;;;;;;;;;5091792;28;20080;-51
2023/08/09 06:06:10;;;;;;;2.40;1.58;;;;;;;;;;5098652;28;20024;-51
2023/08/09 06:08:37;;;;;;;2.03;1.30;;;;;;;;;;5106778;28;20036;-48
2023/08/09 06:11:04;;;;;;;3.47;1.33;;;;;;;;;;5106927;28;20071;-48
2023/08/09 06:13:31;;;;;;;2.08;1.58;;;;;;;;;;5104535;28;20260;-51
2023/08/09 06:15:58;;;;;;;2.33;1.58;;;;;;;;;;5095766;28;20032;-51
2023/08/09 06:18:25;;;;;;;3.13;1.40;;;;;;;;;;5085648;28;20087;-48
2023/08/09 06:20:54;;;;;;;4.85;1.52;;;;;;;;;;5087633;28;20304;-45
2023/08/09 06:23:21;;;;;;;2.92;1.40;;;;;;;;;;5098223;28;20099;-48
2023/08/09 06:25:49;;;;;;;2.50;1.38;;;;;;;;;;5095793;28;20235;-55
2023/08/09 06:28:17;;;;;;;4.18;1.73;;;;;;;;;;5088582;28;20025;-52
2023/08/09 06:30:44;;;;;;;2.45;1.40;;;;;;;;;;5087016;28;20186;-51
2023/08/09 06:33:11;;;;;;;4.45;1.42;;;;;;;;;;5098525;28;20020;-45
2023/08/09 06:35:39;;;;;;;3.08;1.70;;;;;;;;;;5086692;28;20062;-51
2023/08/09 06:38:06;;;;;;;4.22;1.65;;;;;;;;;;5092915;28;20059;-48
2023/08/09 06:40:33;;;;;;;4.07;1.90;;;;;;;;;;5095931;28;20028;-54
2023/08/09 06:42:59;;;;;;;2.60;1.50;;;;;;;;;;5096158;28;20370;-52
2023/08/09 06:45:26;;;;;;;3.05;1.60;;;;;;;;;;5093232;28;20052;-55
2023/08/09 06:47:53;;;;;;;3.67;1.63;;;;;;;;;;5096067;28;20099;-50
2023/08/09 06:50:20;;;;;;;2.22;1.50;;;;;;;;;;5098243;28;20028;-46
2023/08/09 06:52:46;;;;;;;3.35;1.70;;;;;;;;;;5096996;28;20103;-58
2023/08/09 06:55:13;;;;;;;3.00;2.00;;;;;;;;;;5095432;28;20139;-48
2023/08/09 06:57:40;;;;;;;3.35;1.50;;;;;;;;;;5092152;28;20056;-51
2023/08/09 07:00:16;;;;;;;5.95;1.50;;;;;;;;;;5098194;28;20308;-53
2023/08/09 07:02:45;;;;;;;2.70;1.67;;;;;;;;;;5096041;28;20035;-53
2023/08/09 07:05:21;;;;;;;3.50;1.63;;;;;;;;;;5098209;28;20024;-55
2023/08/09 07:07:51;;;;;;;4.90;2.05;;;;;;;;;;5095431;28;20032;-53
2023/08/09 07:10:18;;;;;;;3.00;1.35;;;;;;;;;;5106110;28;20284;-49
2023/08/09 07:12:45;;;;;;;4.78;1.90;;;;;;;;;;5105806;28;20208;-47
2023/08/09 07:15:12;;;;;;;3.90;1.75;;;;;;;;;;5097137;28;20030;-48
2023/08/09 07:17:39;;;;;;;3.75;1.90;;;;;;;;;;5090794;28;20043;-52
2023/08/09 07:20:07;;;;;;;4.53;1.83;;;;;;;;;;5094779;28;20308;-53
2023/08/09 07:22:34;;;;;;;2.13;1.42;;;;;;;;;;5093723;28;20031;-46
2023/08/09 07:25:01;;;;;;;2.40;1.60;;;;;;;;;;5096487;28;20099;-53
2023/08/09 07:27:28;;;;;;;3.85;1.52;;;;;;;;;;5094408;28;20073;-60
2023/08/09 07:29:54;;;;;;;3.35;1.67;;;;;;;;;;5096270;28;20020;-58
2023/08/09 07:32:21;;;;;;;2.60;1.58;;;;;;;;;;5094471;28;20039;-48
2023/08/09 07:34:48;;;;;;;6.35;2.03;;;;;;;;;;5096445;28;20024;-48
2023/08/09 07:37:14;;;;;;;3.40;1.70;;;;;;;;;;5085011;28;20024;-48
2023/08/09 07:39:41;;;;;;;2.78;1.40;;;;;;;;;;5085192;28;20213;-47
2023/08/09 07:42:08;;;;;;;2.55;1.40;;;;;;;;;;5084880;28;20027;-54
2023/08/09 07:44:34;;;;;;;2.47;1.40;;;;;;;;;;5101467;28;20051;-53
2023/08/09 07:47:01;;;;;;;3.83;1.50;;;;;;;;;;5117160;28;20032;-50
2023/08/09 07:49:27;;;;;;;11.57;2.05;;;;;;;;;;5117992;28;20303;-54
2023/08/09 07:51:54;;;;;;;8.52;2.13;;;;;;;;;;5117343;28;20032;-54
2023/08/09 07:54:21;;;;;;;4.93;1.90;;;;;;;;;;5105161;28;20024;-49
2023/08/09 07:56:47;;;;;;;9.98;1.90;;;;;;;;;;5104972;28;20083;-50
2023/08/09 07:59:14;;;;;;;6.78;1.83;;;;;;;;;;5104812;28;20027;-47
2023/08/09 08:01:41;;;;;;;3.35;1.63;;;;;;;;;;5116202;28;20087;-52
2023/08/09 08:04:07;;;;;;;6.72;1.80;;;;;;;;;;5104957;28;20300;-48
2023/08/09 08:06:34;;;;;;;7.05;1.80;;;;;;;;;;5104573;28;20028;-54
2023/08/09 08:09:02;;;;;;;4.63;1.63;;;;;;;;;;5104665;28;20044;-56
2023/08/09 08:11:28;;;;;;;5.75;1.98;;;;;;;;;;5104899;28;20331;-59
2023/08/09 08:13:55;;;;;;;6.07;1.73;;;;;;;;;;5104551;28;20016;-55
2023/08/09 08:16:21;;;;;;;12.00;2.60;;;;;;;;;;5110467;28;20027;-48
2023/08/09 08:18:48;;;;;;;10.25;2.30;;;;;;;;;;5110163;28;20079;-51
2023/08/09 08:21:15;;;;;;;8.98;2.15;;;;;;;;;;5104396;28;20084;-51
2023/08/09 08:23:41;;;;;;;10.40;2.15;;;;;;;;;;5104417;28;20020;-47
2023/08/09 08:26:09;;;;;;;6.03;1.80;;;;;;;;;;5104553;28;20028;-53
2023/08/09 08:28:36;;;;;;;5.43;1.77;;;;;;;;;;5104193;28;20020;-51
2023/08/09 08:31:07;;;;;;;5.53;1.65;;;;;;;;;;5104865;28;20028;-47
2023/08/09 08:33:34;;;;;;;5.45;2.00;;;;;;;;;;5104236;28;20053;-49
2023/08/09 08:36:01;;;;;;;3.03;1.80;;;;;;;;;;5104708;28;20118;-47
2023/08/09 08:38:28;;;;;;;3.95;1.60;;;28.30;99.90;;;;;;5104211;28;20099;-53
2023/08/09 08:40:54;;;;;;;6.47;1.60;;;28.10;99.90;;;;;;5103568;28;20024;-48
2023/08/09 08:43:21;;;;;;;3.72;1.90;;;28.00;99.90;;;;;;5104197;28;20047;-50
2023/08/09 08:45:48;;;;;;;5.40;1.80;;;28.10;99.90;;;;;;5103848;28;20044;-48
2023/08/09 08:48:15;;;;;;;4.32;1.98;;;28.10;99.90;;;;;;5104058;28;20020;-48
2023/08/09 08:50:43;;;;;;;5.88;1.80;;;28.20;99.90;;;;;;5104305;28;20084;-52
2023/08/09 08:53:11;;;;;;;4.65;1.77;;;;;;;;;;5104176;28;20316;-56
2023/08/09 08:55:39;;;;;;;6.15;1.58;;;;;;;;;;5104491;28;20204;-48
2023/08/09 08:58:06;;;;;;;5.60;1.80;;;;;;;;;;5103891;28;20054;-44
2023/08/09 09:00:32;;;;;;;4.32;1.70;;;;;;;;;;5104369;28;20036;-48
2023/08/09 09:02:59;;;;;;;3.70;1.80;;;;;;;;;;5104194;28;20024;-49
2023/08/09 09:05:26;;;;;;;6.68;1.90;;;;;;;;;;5104228;28;20042;-53
2023/08/09 09:07:56;;;;;;;4.60;1.67;;;;;;;;;;5104066;28;20095;-50
2023/08/09 09:10:23;;;;;;;5.40;1.70;;;;;;;;;;5104266;28;20024;-48
2023/08/09 09:12:53;;;;;;;2.95;1.67;;;;;;;;;;5103874;28;20083;-47
2023/08/09 09:15:20;;;;;;;7.55;1.98;;;;;;;;;;5104317;28;20035;-54
2023/08/09 09:17:48;;;;;;;3.40;1.58;;;;;;;;;;5120494;28;20024;-46
2023/08/09 09:20:23;;;;;;;4.93;2.08;;;;;;;;;;5124502;28;20027;-50
2023/08/09 09:22:50;;;;;;;4.55;1.67;;;;;;;;;;5124318;28;20047;-50
2023/08/09 09:25:17;;;;;;;5.15;1.60;;;;;;;;;;5124691;28;20196;-55
2023/08/09 09:27:47;;;;;;;2.47;1.65;;;;;;;;;;5123860;28;20031;-51
2023/08/09 09:30:14;;;;;;;4.60;1.92;;;;;;;;;;5116461;28;20047;-54
2023/08/09 09:32:54;;;;;;;3.75;1.98;;;;;;;;;;5108268;28;20024;-50
2023/08/09 09:35:21;;;;;;;3.60;1.77;;;;;;;;;;5104143;28;20300;-49
2023/08/09 09:37:49;;;;;;;5.25;1.95;;;;;;;;;;5103746;28;20118;-48
2023/08/09 09:40:25;;;;;;;5.78;1.50;;;;;;;;;;5103865;28;20091;-46
2023/08/09 09:42:55;;;;;;;10.05;2.10;;;;;;;;;;5097990;28;20316;-52
2023/08/09 09:45:23;;;;;;;3.28;2.30;;;;;;;;;;5093970;28;20071;-47
2023/08/09 09:47:51;;;;;;;2.97;2.00;;;;;;;;;;5094197;28;20047;-50
2023/08/09 09:50:18;;;;;;;7.22;2.47;;;;;;;;;;5096922;28;20020;-50
2023/08/09 09:52:46;;;;;;;5.28;2.53;;;;;;;;;;5109443;28;20055;-49
2023/08/09 09:55:13;;;;;;;5.05;2.10;;;;;;;;;;5128239;28;20208;-52
2023/08/09 09:57:40;;;;;;;4.53;2.08;;;;;;;;;;5127810;28;20142;-45
2023/08/09 10:00:11;;;;;;;5.93;2.20;;;;;;;;;;5127913;28;20031;-47
2023/08/09 10:02:48;;;;;;;6.25;2.15;;;;;;;;;;5127679;28;20033;-53
2023/08/09 10:05:22;;;;;;;3.92;1.90;;;;;;;;;;5127915;28;20095;-47
2023/08/09 10:07:50;;;;;;;6.68;2.17;;;;;;;;;;5127300;28;20036;-47
2023/08/09 10:10:17;;;;;;;2.65;2.03;;;;;;;;;;5127860;28;20038;-52
2023/08/09 10:12:47;;;;;;;5.25;1.90;;;;;;;;;;5127419;28;20091;-47
2023/08/09 10:15:16;;;;;;;4.05;1.75;;;;;;;;;;5127647;28;20064;-48
2023/08/09 10:17:44;;;;;;;7.70;2.25;;;;;;;;;;5127349;28;20236;-45
2023/08/09 10:20:12;;;;;;;5.45;2.03;;;28.10;99.90;;;;;;5127462;28;20027;-49
2023/08/09 10:22:39;;;;;;;2.55;1.70;;;27.90;99.90;;;;;;5127352;28;20034;-47
2023/08/09 10:25:07;;;;;;;7.00;2.00;;;27.80;99.90;;;;;;5127408;28;20031;-45
2023/08/09 10:27:50;;;;;;;3.20;2.00;;;27.80;99.90;;;;;;5126848;28;20035;-49
2023/08/09 10:30:19;;;;;;;3.25;1.90;;;27.70;99.90;;;;;;5127431;28;20312;-47
2023/08/09 10:32:57;;;;;;;7.70;1.95;;;27.70;99.90;;;;;;5126953;28;20027;-50
2023/08/09 10:35:48;;;;;;;3.58;2.10;;;27.70;99.90;;;;;;5127411;28;20031;-52
2023/08/09 10:38:31;;;;;;;5.03;1.88;;;27.60;99.90;;;;;;5127210;28;20032;-54
2023/08/09 10:40:59;;;;;;;6.18;2.05;;;27.60;99.90;;;;;;5127536;28;20038;-45
2023/08/09 10:43:29;;;;;;;4.30;1.98;;;27.60;99.90;;;;;;5126892;28;20036;-49
2023/08/09 10:45:57;;;;;;;6.93;2.03;;;27.60;99.90;;;;;;5127049;28;20358;-50
2023/08/09 10:48:29;;;;;;;3.30;1.88;;;27.60;99.90;;;;;;5108951;28;20044;-49
2023/08/09 10:51:11;;;;;;;4.70;1.98;;;27.60;99.90;;;;;;5127510;28;20027;-48
2023/08/09 10:54:06;;;;;;;3.70;1.85;;;27.60;99.90;;;;;;5127067;28;20031;-52
2023/08/09 10:56:42;;;;;;;7.43;2.15;;;27.60;99.90;;;;;;5126685;28;20211;-52
2023/08/09 10:59:24;;;;;;;5.15;2.42;;;27.60;99.90;;;;;;5126585;28;20300;-51
2023/08/09 11:01:53;;;;;;;10.43;3.72;;;27.50;99.90;;;;;;5118733;28;20069;-50
2023/08/09 11:04:25;;;;;;;12.40;4.90;;;27.50;99.90;;;;;;5105676;28;20035;-53
2023/08/09 11:06:52;;;;;;;10.02;4.03;;;27.60;99.90;;;;;;5106404;28;20027;-49
2023/08/09 11:09:22;;;;;;;10.50;3.83;;;27.60;99.90;;;;;;5106092;28;20020;-48
2023/08/09 11:11:49;;;;;;;8.63;3.17;;;27.60;99.90;;;;;;5105842;28;20036;-49
2023/08/09 11:14:21;;;;;;;8.48;3.08;;;27.60;99.90;;;;;;5106014;28;20019;-52
2023/08/09 11:16:49;;;;;;;7.90;3.30;;;27.60;99.90;;;;;;5105824;28;20027;-47
2023/08/09 11:19:20;;;;;;;6.43;2.47;;;27.70;99.90;;;;;;5105631;28;20027;-49
2023/08/09 11:21:50;;;;;;;5.18;2.20;;;27.60;99.90;;;;;;5106005;28;20020;-51
2023/08/09 11:24:19;;;;;;;7.20;3.20;;;27.60;99.90;;;;;;5105738;28;20036;-45
2023/08/09 11:26:52;;;;;;;4.05;2.40;;;27.60;99.90;;;;;;5105843;28;20070;-47
2023/08/09 11:29:20;;;;;;;3.40;2.45;;;27.70;99.90;;;;;;5105935;28;20024;-49
2023/08/09 11:31:50;;;;;;;5.40;2.50;;;27.70;99.90;;;;;;5105676;28;20012;-47
2023/08/09 11:34:19;;;;;;;5.32;2.28;;;27.70;99.90;;;;;;5105595;28;20060;-46
2023/08/09 11:36:48;;;;;;;4.97;2.10;;;27.80;99.90;;;;;;5105504;28;20032;-50
2023/08/09 11:39:16;;;;;;;7.07;2.20;;;;;;;;;;5105261;28;20024;-47
2023/08/09 11:41:56;;;;;;;5.35;2.25;;;27.90;99.90;;;;;;5106152;28;20028;-48
2023/08/09 11:44:34;;;;;;;11.55;2.20;;;27.70;99.90;;;;;;5106106;28;20152;-47
2023/08/09 11:47:01;;;;;;;5.60;1.80;;;27.70;99.90;;;;;;5110516;28;20028;-49
2023/08/09 11:49:28;;;;;;;7.43;2.13;;;27.70;99.90;;;;;;5105863;28;20036;-48
2023/08/09 11:51:56;;;;;;;4.57;2.30;;;27.70;99.90;;;;;;5105372;28;20201;-47
2023/08/09 11:54:24;;;;;;;6.50;1.90;;;27.70;99.90;;;;;;5105493;28;20020;-48
2023/08/09 11:56:51;;;;;;;6.78;2.08;;;27.70;99.90;;;;;;5105734;28;20312;-50
2023/08/09 11:59:20;;;;;;;3.05;1.48;;;27.80;99.90;;;;;;5104951;28;20031;-47
2023/08/09 12:01:49;;;;;;;6.18;2.10;;;27.80;99.90;;;;;;5105420;28;20011;-48
2023/08/09 12:04:20;;;;;;;2.33;1.85;;;27.80;99.90;;;;;;5106000;28;20032;-54
2023/08/09 12:06:51;;;;;;;4.95;2.30;;;27.80;99.90;;;;;;5105440;28;20205;-56
2023/08/09 12:09:37;;;;;;;3.40;1.42;;;27.90;99.90;;;;;;5104980;28;20130;-48
2023/08/09 12:12:16;;;;;;;4.15;1.65;;;27.90;99.90;;;;;;5104658;28;20020;-46
2023/08/09 12:14:52;;;;;;;6.25;1.70;;;28.00;99.90;;;;;;5103850;28;20039;-53
2023/08/09 12:17:23;;;;;;;5.60;1.90;;;28.10;99.90;;;;;;5105218;28;20190;-46
2023/08/09 12:19:51;;;;;;;2.58;1.77;;;28.10;99.90;;;;;;5105333;28;20039;-44
2023/08/09 12:22:18;;;;;;;3.33;1.38;;;28.00;99.90;;;;;;5105181;28;20315;-45
2023/08/09 12:24:45;;;;;;;4.43;2.00;;;28.00;99.90;;;;;;5104768;28;20024;-50
2023/08/09 12:27:11;;;;;;;2.90;1.88;;;28.10;99.90;;;;;;5104949;28;20069;-49
2023/08/09 12:29:38;;;;;;;3.95;1.70;;;28.30;99.90;;;;;;5104437;28;20039;-48
2023/08/09 12:32:05;;;;;;;5.57;2.70;;;28.30;99.90;;;;;;5104728;28;20281;-49
2023/08/09 12:34:31;;;;;;;3.80;1.80;;;28.40;99.90;;;;;;5104335;28;20032;-48
2023/08/09 12:36:59;;;;;;;2.20;1.60;;;28.30;99.90;;;;;;5104282;28;20028;-49
2023/08/09 12:39:36;;;;;;;3.20;1.45;;;28.30;99.90;;;;;;5086231;28;20028;-58
2023/08/09 12:42:05;;;;;;;3.92;1.50;;;28.30;99.90;;;;;;5104121;28;20023;-54
2023/08/09 12:44:32;;;;;;;4.18;1.73;;;28.30;99.90;;;;;;5103954;28;20059;-51
2023/08/09 12:46:58;;;;;;;6.47;1.70;;;28.30;99.90;;;;;;5104453;28;20032;-46
2023/08/09 12:49:25;;;;;;;4.22;1.50;;;28.40;99.90;;;;;;5104872;28;20027;-54
2023/08/09 12:51:52;;;;;;;2.03;1.52;;;28.40;99.90;;;;;;5104220;28;20024;-52
2023/08/09 12:54:18;;;;;;;3.03;1.45;;;28.40;99.90;;;;;;5104596;28;20050;-55
2023/08/09 12:56:45;;;;;;;4.82;1.67;;;28.40;99.90;;;;;;5104195;28;20027;-49
2023/08/09 12:59:13;;;;;;;4.85;1.63;;;28.40;99.90;;;;;;5104004;28;20035;-51
2023/08/09 13:01:40;;;;;;;3.00;1.40;;;28.50;99.90;;;;;;5104567;28;20028;-50
2023/08/09 13:04:07;;;;;;;5.70;1.60;;;28.40;99.90;;;;;;5103920;28;20043;-48
2023/08/09 13:06:35;;;;;;;3.42;1.00;;;28.40;99.90;;;;;;5090956;28;20087;-48
2023/08/09 13:09:02;;;;;;;3.17;1.25;;;28.40;99.90;;;;;;5104005;28;20036;-48
2023/08/09 13:11:28;;;;;;;2.65;1.33;;;28.40;99.90;;;;;;5104131;28;20016;-53
2023/08/09 13:13:56;;;;;;;3.38;1.10;;;28.40;99.90;;;;;;5103862;28;20312;-48
2023/08/09 13:16:23;;;;;;;5.45;1.40;;;28.40;99.90;;;;;;5103967;28;20019;-51
2023/08/09 13:18:50;;;;;;;3.95;1.52;;;28.40;99.90;;;;;;5103926;28;20024;-48
2023/08/09 13:21:16;;;;;;;5.07;1.63;;;;;;;;;;5103909;28;20032;-48
2023/08/09 13:23:43;;;;;;;4.25;1.60;;;;;;;;;;5103982;28;20047;-47
2023/08/09 13:26:11;;;;;;;3.88;1.42;;;;;;;;;;5104774;28;20044;-46
2023/08/09 13:28:38;;;;;;;1.95;1.48;;;;;;;;;;5107567;28;20260;-48
2023/08/09 13:31:05;;;;;;;4.75;1.40;;;;;;;;;;5107865;28;20072;-50
2023/08/09 13:33:32;;;;;;;2.25;1.15;;;;;;;;;;5107616;28;20020;-48
2023/08/09 13:35:58;;;;;;;3.10;1.38;;;;;;;;;;5107539;28;20032;-44
2023/08/09 13:38:29;;;;;;;4.40;1.52;;;;;;;;;;5107761;28;20036;-45
2023/08/09 13:40:57;;;;;;;5.25;1.65;;;;;;;;;;5107392;28;20020;-46
2023/08/09 13:43:24;;;;;;;4.97;1.80;;;;;;;;;;5107421;28;20043;-55
2023/08/09 13:45:50;;;;;;;5.93;1.60;;;;;;;;;;5107349;28;20055;-48
2023/08/09 13:48:17;;;;;;;6.10;2.05;;;;;;;;;;5107686;28;20034;-49
2023/08/09 13:50:45;;;;;;;5.47;1.80;;;;;;;;;;5107253;28;20036;-52
2023/08/09 13:53:12;;;;;;;9.75;1.80;;;;;;;;;;5107567;28;20263;-52
2023/08/09 13:55:39;;;;;;;15.48;2.35;;;;;;;;;;5107267;28;20242;-51
2023/08/09 13:58:05;;;;;;;13.70;2.20;;;;;;;;;;5107083;28;20035;-57
2023/08/09 14:00:32;;;;;;;23.98;3.08;;;;;;;;;;5107426;28;20044;-52
2023/08/09 14:03:02;;;;;;;22.92;3.95;;;;;;;;;;5107191;28;20027;-45
2023/08/09 14:05:28;;;;;;;14.55;3.28;;;;;;;;;;5107091;28;20036;-51
2023/08/09 14:07:58;;;;;;;10.38;2.42;;;;;;;;;;5107037;28;20091;-61
2023/08/09 14:10:25;;;;;;;12.68;3.03;;;;;;;;;;5107115;28;20268;-53